createdAt,value
2023-04-11T00:00:37.032Z,-139.42
2023-04-11T00:03:07.456Z,-139.42
2023-04-11T00:05:36.434Z,-139.42
2023-04-11T00:08:05.451Z,-139.42
2023-04-11T00:10:34.391Z,-139.42
2023-04-11T00:13:02.879Z,-139.42
2023-04-11T00:15:32.873Z,-139.42
2023-04-11T00:18:03.395Z,-139.42
2023-04-11T00:20:32.612Z,-139.42
2023-04-11T00:23:01.225Z,-139.42
2023-04-11T00:25:31.043Z,-139.42
2023-04-11T00:27:59.612Z,-139.42
2023-04-11T00:30:28.479Z,-139.42
2023-04-11T00:32:58.450Z,-139.42
2023-04-11T00:35:26.990Z,-139.42
2023-04-11T00:37:56.467Z,-139.42
2023-04-11T00:40:24.921Z,-139.42
2023-04-11T00:46:36.381Z,-139.42
2023-04-11T00:49:06.507Z,-139.42
2023-04-11T00:51:35.263Z,-139.42
2023-04-11T00:54:04.398Z,-139.42
2023-04-11T00:56:33.269Z,-139.42
2023-04-11T00:59:01.853Z,-139.42
2023-04-11T01:01:30.584Z,-139.42
2023-04-11T01:04:01.274Z,-139.42
2023-04-11T01:06:32.668Z,-139.42
2023-04-11T01:09:01.566Z,-139.42
2023-04-11T01:11:30.146Z,-139.42
2023-04-11T01:13:58.802Z,-139.42
2023-04-11T01:16:27.416Z,-139.42
2023-04-11T01:18:56.200Z,-139.42
2023-04-11T01:21:27.374Z,-139.42
2023-04-11T01:23:58.800Z,-139.42
2023-04-11T01:26:27.419Z,-139.42
2023-04-11T01:28:56.255Z,-139.42
2023-04-11T01:31:25.241Z,-139.42
2023-04-11T01:33:53.904Z,-139.42
2023-04-11T01:36:23.088Z,-139.42
2023-04-11T01:38:52.090Z,-139.42
2023-04-11T01:41:23.858Z,-139.42
2023-04-11T01:43:52.802Z,-139.42
2023-04-11T01:46:21.767Z,-139.42
2023-04-11T01:48:51.733Z,-139.42
2023-04-11T01:51:20.457Z,-139.42
2023-04-11T01:53:49.265Z,-139.42
2023-04-11T01:56:17.945Z,-139.42
2023-04-11T01:58:48.084Z,-139.42
2023-04-11T02:01:19.541Z,-139.42
2023-04-11T02:03:48.317Z,-139.42
2023-04-11T02:06:17.622Z,-139.42
2023-04-11T02:08:48.461Z,-139.42
2023-04-11T02:11:17.107Z,-139.42
2023-04-11T02:13:46.158Z,-139.42
2023-04-11T02:16:18.417Z,-139.42
2023-04-11T02:18:47.835Z,-139.42
2023-04-11T02:21:16.423Z,-139.42
2023-04-11T02:23:45.239Z,-139.42
2023-04-11T02:26:13.915Z,-139.42
2023-04-11T02:28:43.223Z,-139.42
2023-04-11T02:31:12.195Z,-139.42
2023-04-11T02:33:42.241Z,-139.42
2023-04-11T02:36:12.688Z,-139.42
2023-04-11T02:38:41.475Z,-139.42
2023-04-11T02:41:10.159Z,-139.42
2023-04-11T02:43:39.054Z,-139.42
2023-04-11T02:46:12.577Z,-139.42
2023-04-11T02:48:43.297Z,-139.42
2023-04-11T02:51:11.758Z,-139.42
2023-04-11T02:53:40.276Z,-139.42
2023-04-11T02:56:12.255Z,-139.42
2023-04-11T02:58:42.227Z,-139.42
2023-04-11T03:01:12.229Z,-139.42
2023-04-11T03:03:40.928Z,-139.42
2023-04-11T03:06:11.368Z,-139.42
2023-04-11T03:08:40.264Z,-139.42
2023-04-11T03:11:08.894Z,-139.42
2023-04-11T03:13:39.598Z,-139.42
2023-04-11T03:16:14.163Z,-139.42
2023-04-11T03:18:42.606Z,-139.42
2023-04-11T03:21:12.768Z,-139.42
2023-04-11T03:23:41.320Z,-139.42
2023-04-11T03:26:10.015Z,-139.42
2023-04-11T03:28:38.503Z,-139.42
2023-04-11T03:31:07.774Z,-139.42
2023-04-11T03:33:36.363Z,-139.42
2023-04-11T03:36:05.338Z,-139.42
2023-04-11T03:38:35.368Z,-139.42
2023-04-11T03:41:04.161Z,-139.42
2023-04-11T03:43:32.909Z,-139.42
2023-04-11T03:46:01.419Z,-139.42
2023-04-11T03:48:30.089Z,-139.42
2023-04-11T03:50:58.683Z,-139.42
2023-04-11T03:53:27.418Z,-139.42
2023-04-11T03:55:57.386Z,-139.42
2023-04-11T03:58:26.601Z,-139.42
2023-04-11T04:00:55.099Z,-139.42
2023-04-11T04:03:23.981Z,-139.42
2023-04-11T04:05:52.660Z,-139.42
2023-04-11T04:08:21.249Z,-139.42
2023-04-11T04:10:49.751Z,-139.42
2023-04-11T04:13:19.678Z,-139.42
2023-04-11T04:15:48.142Z,-139.42
2023-04-11T04:18:16.894Z,-139.42
2023-04-11T04:20:45.323Z,-139.42
2023-04-11T04:23:14.443Z,-139.42
2023-04-11T04:25:43.992Z,-139.42
2023-04-11T04:28:13.167Z,-139.42
2023-04-11T04:30:43.476Z,-139.42
2023-04-11T04:33:14.934Z,-139.42
2023-04-11T04:35:43.799Z,-139.42
2023-04-11T04:38:18.118Z,-139.42
2023-04-11T04:40:48.414Z,-139.42
2023-04-11T04:43:24.542Z,-139.42
2023-04-11T04:45:54.656Z,-139.42
2023-04-11T04:48:25.776Z,-139.42
2023-04-11T04:50:54.309Z,-139.42
2023-04-11T04:53:22.717Z,-139.42
2023-04-11T04:55:51.865Z,-139.42
2023-04-11T04:58:20.734Z,-139.42
2023-04-11T05:00:50.656Z,-139.42
2023-04-11T05:03:21.156Z,-139.42
2023-04-11T05:05:50.126Z,-139.42
2023-04-11T05:08:20.814Z,-139.42
2023-04-11T05:10:49.350Z,-139.42
2023-04-11T05:13:18.136Z,-139.42
2023-04-11T05:15:50.079Z,-139.42
2023-04-11T05:18:20.134Z,-139.42
2023-04-11T05:20:49.127Z,-139.42
2023-04-11T05:23:17.671Z,-139.42
2023-04-11T05:25:46.092Z,-139.42
2023-04-11T05:28:14.520Z,-139.42
2023-04-11T05:30:43.455Z,-139.42
2023-04-11T05:33:13.272Z,-139.42
2023-04-11T05:35:43.369Z,-139.42
2023-04-11T05:38:12.264Z,-139.42
2023-04-11T05:40:40.835Z,-139.42
2023-04-11T05:43:11.676Z,-139.42
2023-04-11T05:45:40.793Z,-139.42
2023-04-11T05:48:09.992Z,-139.42
2023-04-11T05:50:38.979Z,-139.42
2023-04-11T05:53:09.096Z,-139.42
2023-04-11T05:55:38.303Z,-139.42
2023-04-11T05:58:07.708Z,-139.42
2023-04-11T06:00:38.438Z,-139.42
2023-04-11T06:03:08.198Z,-139.42
2023-04-11T06:05:37.452Z,-139.42
2023-04-11T06:08:07.080Z,-139.42
2023-04-11T06:10:37.400Z,-139.42
2023-04-11T06:13:06.439Z,-139.42
2023-04-11T06:15:35.132Z,-139.42
2023-04-11T06:18:04.017Z,-139.42
2023-04-11T06:20:32.817Z,-139.42
2023-04-11T06:23:02.397Z,-139.42
2023-04-11T06:25:31.306Z,-139.42
2023-04-11T06:28:01.429Z,-139.42
2023-04-11T06:30:30.508Z,-139.42
2023-04-11T06:33:00.123Z,-139.42
2023-04-11T06:35:29.238Z,-139.42
2023-04-11T06:37:57.936Z,-139.42
2023-04-11T06:40:26.834Z,-139.42
2023-04-11T06:42:58.274Z,-139.42
2023-04-11T06:45:33.518Z,-139.42
2023-04-11T06:48:02.614Z,-139.42
2023-04-11T06:50:31.423Z,-139.42
2023-04-11T06:53:00.121Z,-139.42
2023-04-11T06:55:29.010Z,-139.42
2023-04-11T06:57:57.698Z,-139.42
2023-04-11T07:00:28.388Z,-139.42
2023-04-11T07:02:57.500Z,-139.42
2023-04-11T07:05:26.529Z,-139.42
2023-04-11T07:07:56.045Z,-139.42
2023-04-11T07:10:25.248Z,-139.42
2023-04-11T07:12:54.432Z,-139.42
2023-04-11T07:15:24.179Z,-139.42
2023-04-11T07:18:02.025Z,-139.42
2023-04-11T07:20:31.383Z,-139.42
2023-04-11T07:23:00.171Z,-139.42
2023-04-11T07:25:31.001Z,-139.42
2023-04-11T07:28:00.528Z,-139.42
2023-04-11T07:30:29.722Z,-139.42
2023-04-11T07:32:59.824Z,-139.42
2023-04-11T07:35:28.717Z,-139.42
2023-04-11T07:37:58.589Z,-139.42
2023-04-11T07:40:27.246Z,-139.42
2023-04-11T07:42:55.918Z,-139.42
2023-04-11T07:45:24.780Z,-139.42
2023-04-11T07:47:53.539Z,-139.42
2023-04-11T07:50:23.832Z,-139.42
2023-04-11T07:52:52.720Z,-139.42
2023-04-11T07:55:21.426Z,-139.42
2023-04-11T07:57:50.011Z,-139.42
2023-04-11T08:00:23.303Z,-139.42
2023-04-11T08:02:52.788Z,-139.42
2023-04-11T08:05:23.140Z,-139.42
2023-04-11T08:07:52.143Z,-139.42
2023-04-11T08:10:20.834Z,-139.42
2023-04-11T08:12:49.443Z,-139.42
2023-04-11T08:15:18.422Z,-139.42
2023-04-11T08:17:49.921Z,-139.42
2023-04-11T08:20:19.189Z,-139.42
2023-04-11T08:22:49.310Z,-139.42
2023-04-11T08:25:20.422Z,-139.42
2023-04-11T08:27:49.262Z,-139.42
2023-04-11T08:30:19.273Z,-139.42
2023-04-11T08:32:48.045Z,-139.42
2023-04-11T08:35:16.867Z,-139.42
2023-04-11T08:37:45.948Z,-139.42
2023-04-11T08:40:15.972Z,-139.42
2023-04-11T08:42:45.292Z,-139.42
2023-04-11T08:45:14.602Z,-139.42
2023-04-11T08:47:45.427Z,-139.42
2023-04-11T08:50:14.935Z,-139.42
2023-04-11T08:52:46.298Z,-139.42
2023-04-11T08:55:16.825Z,-139.42
2023-04-11T08:57:45.509Z,-139.42
2023-04-11T09:00:15.413Z,-139.42
2023-04-11T09:02:58.295Z,-139.42
2023-04-11T09:05:31.135Z,-139.42
2023-04-11T09:08:00.352Z,-139.42
2023-04-11T09:10:30.582Z,-139.42
2023-04-11T09:12:59.868Z,-139.42
2023-04-11T09:15:30.217Z,-139.42
2023-04-11T09:18:01.032Z,-139.42
2023-04-11T09:20:31.457Z,-139.42
2023-04-11T09:23:00.636Z,-139.42
2023-04-11T09:25:30.961Z,-139.42
2023-04-11T09:28:09.733Z,-139.42
2023-04-11T09:30:38.407Z,-139.42
2023-04-11T09:33:22.909Z,-139.42
2023-04-11T09:35:52.614Z,-139.42
2023-04-11T09:38:33.013Z,-139.42
2023-04-11T09:41:04.440Z,-139.42
2023-04-11T09:43:52.028Z,-139.42
2023-04-11T09:46:22.249Z,-139.42
2023-04-11T09:48:52.802Z,-139.42
2023-04-11T09:51:35.223Z,-139.42
2023-04-11T09:54:06.633Z,-139.42
2023-04-11T09:56:37.819Z,-139.42
2023-04-11T09:59:06.988Z,-139.42
2023-04-11T10:01:36.119Z,-139.42
2023-04-11T10:04:05.799Z,-139.42
2023-04-11T10:06:42.056Z,-139.42
2023-04-11T10:09:12.571Z,-139.42
2023-04-11T10:11:44.880Z,-139.42
2023-04-11T10:14:44.023Z,-139.42
2023-04-11T10:17:14.909Z,-139.42
2023-04-11T10:19:45.474Z,-139.42
2023-04-11T10:22:53.822Z,-139.42
2023-04-11T10:25:23.945Z,-139.42
2023-04-11T10:28:01.026Z,-139.42
2023-04-11T10:31:04.667Z,-139.42
2023-04-11T10:33:34.336Z,-139.42
2023-04-11T10:36:05.657Z,-139.42
2023-04-11T10:38:50.214Z,-139.42
2023-04-11T10:41:31.942Z,-139.42
2023-04-11T10:44:18.594Z,-139.42
2023-04-11T10:46:54.057Z,-139.42
2023-04-11T10:49:39.939Z,-139.42
2023-04-11T10:52:20.780Z,-139.42
2023-04-11T10:54:49.497Z,-139.42
2023-04-11T10:57:18.033Z,-139.42
2023-04-11T11:00:13.155Z,-139.42
2023-04-11T11:02:42.934Z,-139.42
2023-04-11T11:05:22.101Z,-139.42
2023-04-11T11:07:52.681Z,-139.42
2023-04-11T11:10:40.727Z,-139.42
2023-04-11T11:13:10.039Z,-139.42
2023-04-11T11:15:40.456Z,-139.42
2023-04-11T11:18:11.059Z,-139.42
2023-04-11T11:20:39.737Z,-139.42
2023-04-11T11:23:10.122Z,-139.42
2023-04-11T11:25:39.264Z,-139.42
2023-04-11T11:28:09.577Z,-139.42
2023-04-11T11:30:40.392Z,-139.42
2023-04-11T11:33:19.346Z,-139.42
2023-04-11T11:35:54.339Z,-139.42
2023-04-11T11:38:26.739Z,-139.42
2023-04-11T11:40:56.106Z,-139.42
2023-04-11T11:43:24.892Z,-139.42
2023-04-11T11:59:28.194Z,10.64
2023-04-11T12:01:56.920Z,10.61
2023-04-11T12:04:27.675Z,10.44
2023-04-11T12:06:56.690Z,10.22
2023-04-11T12:09:32.366Z,10.17
2023-04-11T12:12:00.956Z,10.14
2023-04-11T12:14:30.983Z,10.22
2023-04-11T12:16:59.474Z,10.12
2023-04-11T12:19:28.899Z,10.00
2023-04-11T12:21:57.378Z,9.82
2023-04-11T12:24:25.864Z,9.75
2023-04-11T12:27:06.455Z,9.65
2023-04-11T12:29:37.608Z,9.59
2023-04-11T12:32:06.974Z,9.48
2023-04-11T12:34:35.759Z,9.35
2023-04-11T12:37:04.345Z,9.38
2023-04-11T12:39:33.338Z,9.37
2023-04-11T12:42:01.935Z,9.27
2023-04-11T12:44:30.470Z,9.26
2023-04-11T12:47:00.700Z,9.22
2023-04-11T12:49:29.653Z,9.15
2023-04-11T12:51:58.163Z,9.20
2023-04-11T12:54:26.701Z,9.24
2023-04-11T12:56:55.142Z,9.28
2023-04-11T12:59:23.780Z,9.30
2023-04-11T13:01:52.424Z,9.30
2023-04-11T13:04:22.910Z,9.47
2023-04-11T13:06:52.600Z,9.56
2023-04-11T13:09:21.291Z,9.67
2023-04-11T13:11:50.116Z,9.74
2023-04-11T13:14:19.401Z,9.75
2023-04-11T13:16:48.629Z,9.84
2023-04-11T13:19:17.307Z,9.85
2023-04-11T13:21:47.838Z,9.96
2023-04-11T13:24:16.860Z,10.05
2023-04-11T13:26:46.004Z,10.09
2023-04-11T13:29:14.761Z,10.19
2023-04-11T13:31:43.423Z,10.31
2023-04-11T13:34:12.229Z,10.27
2023-04-11T13:36:41.230Z,10.38
2023-04-11T13:39:13.676Z,10.42
2023-04-11T13:41:42.282Z,10.47
2023-04-11T13:44:10.970Z,10.46
2023-04-11T13:46:39.658Z,10.46
2023-04-11T13:49:08.308Z,10.40
2023-04-11T13:51:36.844Z,10.37
2023-04-11T13:54:05.630Z,10.38
2023-04-11T13:56:36.489Z,10.27
2023-04-11T13:59:06.278Z,10.19
2023-04-11T14:01:34.971Z,10.23
2023-04-11T14:04:03.735Z,10.30
2023-04-11T14:06:32.356Z,10.23
2023-04-11T14:09:00.883Z,10.29
2023-04-11T14:11:32.416Z,10.29
2023-04-11T14:14:02.340Z,10.16
2023-04-11T14:16:31.080Z,10.14
2023-04-11T14:18:59.792Z,10.14
2023-04-11T14:21:28.795Z,10.15
2023-04-11T14:23:57.954Z,10.21
2023-04-11T14:26:26.902Z,10.23
2023-04-11T14:28:55.526Z,10.22
2023-04-11T14:31:25.688Z,10.32
2023-04-11T14:33:54.764Z,10.37
2023-04-11T14:36:23.537Z,10.42
2023-04-11T14:38:52.116Z,10.39
2023-04-11T14:41:20.808Z,10.40
2023-04-11T14:43:49.594Z,10.42
2023-04-11T14:46:18.604Z,10.38
2023-04-11T14:48:48.807Z,10.38
2023-04-11T14:51:17.404Z,10.48
2023-04-11T14:53:50.479Z,10.46
2023-04-11T14:56:20.220Z,10.43
2023-04-11T14:58:48.649Z,10.47
2023-04-11T15:01:18.138Z,10.47
2023-04-11T15:03:49.003Z,10.45
2023-04-11T15:06:17.725Z,10.49
2023-04-11T15:08:46.644Z,10.49
2023-04-11T15:11:16.134Z,10.47
2023-04-11T15:13:48.118Z,10.57
2023-04-11T15:16:18.660Z,10.61
2023-04-11T15:18:50.199Z,10.63
2023-04-11T15:21:18.799Z,10.66
2023-04-11T15:23:47.391Z,10.70
2023-04-11T15:26:16.146Z,10.66
2023-04-11T15:28:46.167Z,10.75
2023-04-11T15:31:25.507Z,10.77
2023-04-11T15:33:57.294Z,10.78
2023-04-11T15:36:26.024Z,10.74
2023-04-11T15:38:54.671Z,10.74
2023-04-11T15:41:23.143Z,10.72
2023-04-11T15:43:52.058Z,10.72
2023-04-11T15:46:21.147Z,10.76
2023-04-11T15:48:49.951Z,10.73
2023-04-11T15:51:23.948Z,10.76
2023-04-11T15:53:53.048Z,10.78
2023-04-11T15:56:21.632Z,10.80
2023-04-11T15:58:50.203Z,10.80
2023-04-11T16:01:23.142Z,10.43
2023-04-11T16:03:51.927Z,10.47
2023-04-11T16:06:22.819Z,10.50
2023-04-11T16:08:52.047Z,10.53
2023-04-11T16:11:20.713Z,10.50
2023-04-11T16:13:49.089Z,10.59
2023-04-11T16:16:17.641Z,10.66
2023-04-11T16:18:52.586Z,10.68
2023-04-11T16:21:24.929Z,10.69
2023-04-11T16:23:54.306Z,10.77
2023-04-11T16:26:22.894Z,10.73
2023-04-11T16:28:52.062Z,10.76
2023-04-11T16:31:24.832Z,10.76
2023-04-11T16:33:55.405Z,10.69
2023-04-11T16:36:26.859Z,10.67
2023-04-11T16:38:55.891Z,10.72
2023-04-11T16:41:24.534Z,10.67
2023-04-11T16:43:53.052Z,10.68
2023-04-11T16:46:21.865Z,10.55
2023-04-11T16:48:51.014Z,10.48
2023-04-11T16:51:21.563Z,10.52
2023-04-11T16:53:53.380Z,10.60
2023-04-11T16:56:21.880Z,10.54
2023-04-11T16:58:50.422Z,10.53
2023-04-11T17:01:19.180Z,10.56
2023-04-11T17:03:47.818Z,10.42
2023-04-11T17:06:17.326Z,10.28
2023-04-11T17:08:46.043Z,10.29
2023-04-11T17:11:16.079Z,10.38
2023-04-11T17:13:45.842Z,10.44
2023-04-11T17:16:15.814Z,10.42
2023-04-11T17:18:44.350Z,10.46
2023-04-11T17:21:13.080Z,10.43
2023-04-11T17:23:56.502Z,10.35
2023-04-11T17:26:26.891Z,10.10
2023-04-11T17:28:55.378Z,10.04
2023-04-11T17:31:24.349Z,10.02
2023-04-11T17:34:10.308Z,9.95
2023-04-11T17:36:43.168Z,9.91
2023-04-11T17:39:17.990Z,9.80
2023-04-11T17:41:48.520Z,9.63
2023-04-11T17:44:17.216Z,9.57
2023-04-11T17:46:45.924Z,9.47
2023-04-11T17:49:15.201Z,9.50
2023-04-11T17:51:52.445Z,9.39
2023-04-11T17:54:27.435Z,9.47
2023-04-11T17:56:57.714Z,9.51
2023-04-11T17:59:26.646Z,9.50
2023-04-11T18:02:05.392Z,9.47
2023-04-11T18:04:34.484Z,9.31
2023-04-11T18:07:03.386Z,9.33
2023-04-11T18:09:32.364Z,9.22
2023-04-11T18:12:02.937Z,9.26
2023-04-11T18:14:33.281Z,9.24
2023-04-11T18:17:02.077Z,9.18
2023-04-11T18:19:31.069Z,9.07
2023-04-11T18:21:59.625Z,9.01
2023-04-11T18:24:28.399Z,8.91
2023-04-11T18:26:57.156Z,8.91
2023-04-11T18:29:27.107Z,8.78
2023-04-11T18:32:19.494Z,8.64
2023-04-11T18:34:45.071Z,8.58
2023-04-11T18:37:13.931Z,8.56
2023-04-11T18:39:42.818Z,8.43
2023-04-11T18:42:11.734Z,8.46
2023-04-11T18:44:43.521Z,8.40
2023-04-11T18:47:14.958Z,8.29
2023-04-11T18:49:44.490Z,8.38
2023-04-11T18:52:14.020Z,8.38
2023-04-11T18:54:42.596Z,8.29
2023-04-11T18:57:13.095Z,8.30
2023-04-11T18:59:44.976Z,8.28
2023-04-11T19:02:17.447Z,8.26
2023-04-11T19:04:47.233Z,8.25
2023-04-11T19:07:16.159Z,8.24
2023-04-11T19:09:47.240Z,8.26
2023-04-11T19:12:17.152Z,8.27
2023-04-11T19:14:47.110Z,8.29
2023-04-11T19:17:15.617Z,8.32
2023-04-11T19:19:44.625Z,8.29
2023-04-11T19:22:13.103Z,8.30
2023-04-11T19:24:42.094Z,8.29
2023-04-11T19:27:10.511Z,8.31
2023-04-11T19:29:39.182Z,8.27
2023-04-11T19:32:09.351Z,8.26
2023-04-11T19:34:37.871Z,8.27
2023-04-11T19:37:08.527Z,8.28
2023-04-11T19:39:39.255Z,8.22
2023-04-11T19:42:10.390Z,8.15
2023-04-11T19:44:40.107Z,8.16
2023-04-11T19:47:10.231Z,8.14
2023-04-11T19:49:39.016Z,8.18
2023-04-11T19:52:07.543Z,8.06
2023-04-11T19:54:36.447Z,7.97
2023-04-11T19:57:05.425Z,7.95
2023-04-11T19:59:34.246Z,7.85
2023-04-11T20:02:02.967Z,7.85
2023-04-11T20:04:33.994Z,7.85
2023-04-11T20:07:03.756Z,7.77
2023-04-11T20:09:32.883Z,7.64
2023-04-11T20:12:01.902Z,7.63
2023-04-11T20:14:30.813Z,7.54
2023-04-11T20:17:00.054Z,7.65
2023-04-11T20:19:29.916Z,7.46
2023-04-11T20:22:01.588Z,7.49
2023-04-11T20:24:30.164Z,7.38
2023-04-11T20:26:58.725Z,7.48
2023-04-11T20:29:30.904Z,7.49
2023-04-11T20:31:59.808Z,7.42
2023-04-11T20:34:28.457Z,7.48
2023-04-11T20:36:58.953Z,7.38
2023-04-11T20:39:36.869Z,7.30
2023-04-11T20:42:05.586Z,7.29
2023-04-11T20:44:36.642Z,7.25
2023-04-11T20:47:05.263Z,7.25
2023-04-11T20:49:47.533Z,7.31
2023-04-11T20:52:18.240Z,7.37
2023-04-11T20:54:48.270Z,7.42
2023-04-11T20:57:16.793Z,7.48
2023-04-11T20:59:45.573Z,7.46
2023-04-11T21:02:14.429Z,7.36
2023-04-11T21:04:43.443Z,7.38
2023-04-11T21:07:12.166Z,7.32
2023-04-11T21:09:41.302Z,7.25
2023-04-11T21:12:11.384Z,7.25
2023-04-11T21:14:40.027Z,7.25
2023-04-11T21:17:09.210Z,7.27
2023-04-11T21:19:38.111Z,7.28
2023-04-11T21:22:07.212Z,7.19
2023-04-11T21:24:36.251Z,7.20
2023-04-11T21:27:04.738Z,7.18
2023-04-11T21:29:34.683Z,7.15
2023-04-11T21:32:03.689Z,7.10
2023-04-11T21:34:32.474Z,7.11
2023-04-11T21:37:01.056Z,7.13
2023-04-11T21:39:29.545Z,7.07
2023-04-11T21:41:58.189Z,7.10
2023-04-11T21:44:26.676Z,7.11
2023-04-11T21:46:56.630Z,7.11
2023-04-11T21:49:26.007Z,7.15
2023-04-11T21:51:54.480Z,7.16
2023-04-11T21:54:23.202Z,7.17
2023-04-11T21:56:52.055Z,7.18
2023-04-11T21:59:21.332Z,7.13
2023-04-11T22:01:50.013Z,7.18
2023-04-11T22:04:23.387Z,7.06
2023-04-11T22:06:51.980Z,7.12
2023-04-11T22:09:20.636Z,7.11
2023-04-11T22:11:49.086Z,7.06
2023-04-11T22:14:18.519Z,7.02
2023-04-11T22:16:49.536Z,7.03
2023-04-11T22:19:19.899Z,7.04
2023-04-11T22:21:50.897Z,7.02
2023-04-11T22:24:19.402Z,7.03
2023-04-11T22:26:49.416Z,7.03
2023-04-11T22:29:19.029Z,6.97
2023-04-11T22:31:50.313Z,6.92
2023-04-11T22:34:20.358Z,6.90
2023-04-11T22:36:48.807Z,6.86
2023-04-11T22:39:17.396Z,6.88
2023-04-11T22:41:47.964Z,6.90
2023-04-11T22:44:16.747Z,6.87
2023-04-11T22:46:59.107Z,6.82
2023-04-11T22:49:29.118Z,6.78
2023-04-11T22:51:59.532Z,6.73
2023-04-11T22:54:28.476Z,6.66
2023-04-11T22:56:58.302Z,6.61
2023-04-11T22:59:28.093Z,6.58
2023-04-11T23:01:56.925Z,6.57
2023-04-11T23:04:25.596Z,6.55
2023-04-11T23:06:55.624Z,6.52
2023-04-11T23:09:24.276Z,6.49
2023-04-11T23:11:53.809Z,6.46
2023-04-11T23:14:22.635Z,6.44
2023-04-11T23:16:51.475Z,6.35
2023-04-11T23:19:20.110Z,6.28
2023-04-11T23:22:00.962Z,6.35
2023-04-11T23:24:29.445Z,6.32
2023-04-11T23:26:58.660Z,6.33
2023-04-11T23:29:27.661Z,6.32
2023-04-11T23:31:56.406Z,6.29
2023-04-11T23:34:25.424Z,6.27
2023-04-11T23:36:55.643Z,6.27
2023-04-11T23:39:24.382Z,6.26
2023-04-11T23:41:53.549Z,6.24
2023-04-11T23:44:22.243Z,6.24
2023-04-11T23:46:50.866Z,6.20
2023-04-11T23:49:19.549Z,6.20
2023-04-11T23:51:48.644Z,6.10
2023-04-11T23:54:18.749Z,6.11
2023-04-11T23:56:47.342Z,6.18
2023-04-11T23:59:16.237Z,6.17
